Time;durP1;ratioP1;P1;durP2;ratioP2;P2;SDS_P1;SDS_P2;PMS_P1;PMS_P2;Temp;Humidity;BMP_temperature;BMP_pressure;BME280_temperature;BME280_humidity;BME280_pressure;Samples;Min_cycle;Max_cycle;Signal;HPM_P1;HPM_P2
2021/09/30 00:01:50;;;;;;;9.60;8.35;;;20.00;60.50;;;;;;4974496;28;20113;-67
2021/09/30 00:04:16;;;;;;;10.48;7.40;;;19.90;60.40;;;;;;4974502;28;20327;-67
2021/09/30 00:06:42;;;;;;;8.85;7.32;;;19.90;60.40;;;;;;4974216;28;20401;-67
2021/09/30 00:09:07;;;;;;;10.13;7.40;;;19.90;60.60;;;;;;4973233;28;20037;-67
2021/09/30 00:11:37;;;;;;;12.93;8.02;;;19.90;60.70;;;;;;4974985;28;20031;-67
2021/09/30 00:33:09;;;;;;;8.77;7.22;;;19.60;61.60;;;;;;4974334;28;20444;-67
2021/09/30 00:46:25;;;;;;;8.63;7.38;;;19.60;61.70;;;;;;4975119;28;20130;-67
2021/09/30 00:49:00;;;;;;;10.88;8.25;;;19.60;62.10;;;;;;4972849;28;20023;-66
2021/09/30 00:51:32;;;;;;;10.23;7.88;;;19.60;62.00;;;;;;4973455;28;20042;-67
2021/09/30 02:22:23;;;;;;;7.65;5.13;;;19.20;60.00;;;;;;4965007;28;20125;-66
2021/09/30 03:00:29;;;;;;;6.00;4.45;;;19.10;58.20;;;;;;4976110;28;20393;-67
2021/09/30 03:02:56;;;;;;;6.80;4.47;;;19.10;58.10;;;;;;4975685;28;20023;-66
2021/09/30 03:05:23;;;;;;;4.90;4.43;;;19.10;58.30;;;;;;4976277;28;20054;-66
2021/09/30 03:07:53;;;;;;;6.55;4.38;;;19.10;58.30;;;;;;4975669;28;20404;-66
2021/09/30 03:10:21;;;;;;;6.88;4.35;;;19.10;58.70;;;;;;4976180;28;20422;-66
2021/09/30 03:12:49;;;;;;;5.63;4.00;;;19.10;58.30;;;;;;4975442;28;20027;-67
2021/09/30 03:23:12;;;;;;;5.75;4.75;;;19.00;57.90;;;;;;4975143;28;20023;-67
2021/09/30 03:25:38;;;;;;;5.68;4.40;;;19.10;56.80;;;;;;4958513;28;20070;-66
2021/09/30 03:28:05;;;;;;;6.43;4.75;;;19.10;57.10;;;;;;4975149;28;20101;-67
2021/09/30 03:30:32;;;;;;;9.82;5.20;;;19.10;57.00;;;;;;4976149;28;20059;-67
2021/09/30 03:33:03;;;;;;;9.05;6.75;;;19.10;56.90;;;;;;4975103;28;20026;-66
2021/09/30 03:35:29;;;;;;;13.13;8.93;;;19.10;56.70;;;;;;4975754;28;20189;-67
2021/09/30 03:38:00;;;;;;;14.85;10.43;;;19.10;56.60;;;;;;4975015;28;20074;-67
2021/09/30 03:40:25;;;;;;;20.33;11.35;;;19.10;56.00;;;;;;4976001;28;20407;-66
2021/09/30 03:42:51;;;;;;;20.80;12.40;;;19.20;56.20;;;;;;4974737;28;20030;-66
2021/09/30 03:45:17;;;;;;;17.33;11.77;;;19.20;56.20;;;;;;4975606;28;20042;-66
2021/09/30 03:47:42;;;;;;;18.67;13.05;;;19.20;56.30;;;;;;4974024;28;20027;-67
2021/09/30 03:50:15;;;;;;;22.13;13.93;;;19.20;56.60;;;;;;4974505;28;20509;-66
2021/09/30 03:52:56;;;;;;;21.38;14.43;;;19.20;56.60;;;;;;4974994;28;20034;-66
2021/09/30 03:55:33;;;;;;;21.30;14.00;;;19.20;56.90;;;;;;4956685;29;20059;-67
2021/09/30 04:00:43;;;;;;;18.55;13.65;;;19.20;57.20;;;;;;4975712;28;20051;-66
2021/09/30 04:03:09;;;;;;;24.40;15.38;;;19.20;57.80;;;;;;4974606;28;20396;-67
2021/09/30 04:05:35;;;;;;;19.20;14.40;;;19.20;57.50;;;;;;4975403;28;20396;-66
2021/09/30 04:08:00;;;;;;;20.73;14.85;;;19.20;57.60;;;;;;4973158;28;20074;-66
2021/09/30 04:10:26;;;;;;;23.83;14.68;;;19.20;58.10;;;;;;4975092;28;20035;-66
2021/09/30 04:12:52;;;;;;;22.92;16.17;;;19.20;58.10;;;;;;4974251;28;20026;-67
2021/09/30 04:15:18;;;;;;;23.60;16.70;;;19.20;58.30;;;;;;4973885;28;20034;-67
2021/09/30 04:17:43;;;;;;;22.60;17.92;;;19.10;58.60;;;;;;4973967;28;20019;-67
2021/09/30 04:20:10;;;;;;;27.80;17.65;;;19.10;58.80;;;;;;4973341;28;20030;-66
2021/09/30 04:22:35;;;;;;;26.90;17.90;;;19.10;59.20;;;;;;4974054;28;20038;-67
2021/09/30 04:25:01;;;;;;;27.33;19.38;;;19.20;59.00;;;;;;4973748;28;20039;-66
2021/09/30 04:27:26;;;;;;;29.35;20.48;;;19.10;59.50;;;;;;4974958;28;20031;-67
2021/09/30 04:29:52;;;;;;;27.33;20.20;;;19.00;59.80;;;;;;4973929;28;20037;-67
2021/09/30 04:32:18;;;;;;;31.77;20.75;;;19.00;60.10;;;;;;4974840;28;20362;-67
2021/09/30 04:34:43;;;;;;;25.42;19.23;;;19.00;60.30;;;;;;4973982;28;20019;-67
2021/09/30 04:37:09;;;;;;;32.58;21.27;;;19.00;60.70;;;;;;4974957;28;20023;-67
2021/09/30 04:39:36;;;;;;;32.88;22.80;;;18.90;61.10;;;;;;4973565;28;20488;-67
2021/09/30 04:42:01;;;;;;;30.65;21.83;;;18.80;61.40;;;;;;4975389;28;20018;-66
2021/09/30 04:44:27;;;;;;;27.90;21.52;;;18.80;62.00;;;;;;4973643;28;20037;-67
2021/09/30 04:46:53;;;;;;;33.35;22.00;;;18.80;62.20;;;;;;4974450;28;20030;-66
2021/09/30 04:49:19;;;;;;;29.20;21.65;;;18.80;62.60;;;;;;4973386;28;20161;-66
2021/09/30 04:51:44;;;;;;;31.50;21.67;;;18.70;62.70;;;;;;4972527;28;20027;-66
2021/09/30 04:54:10;;;;;;;31.85;22.42;;;18.70;63.00;;;;;;4973417;28;20058;-66
2021/09/30 04:56:36;;;;;;;33.58;21.23;;;18.70;63.00;;;;;;4974392;28;20050;-66
2021/09/30 04:59:04;;;;;;;32.15;22.38;;;18.80;63.10;;;;;;4972501;28;20082;-66
2021/09/30 05:01:30;;;;;;;30.48;21.23;;;18.60;63.60;;;;;;4974280;28;20113;-66
2021/09/30 05:03:55;;;;;;;28.15;21.63;;;18.70;63.50;;;;;;4972670;28;20061;-66
2021/09/30 05:06:21;;;;;;;27.20;20.90;;;18.70;63.60;;;;;;4974128;28;20038;-66
2021/09/30 05:08:50;;;;;;;31.15;22.10;;;18.70;63.60;;;;;;4973369;28;20038;-66
2021/09/30 05:11:16;;;;;;;28.05;20.95;;;18.60;63.80;;;;;;4964309;28;20038;-66
2021/09/30 05:13:43;;;;;;;31.85;21.33;;;18.60;64.50;;;;;;4941822;28;20507;-66
2021/09/30 05:16:11;;;;;;;33.55;21.95;;;18.60;64.20;;;;;;4974045;28;20034;-66
2021/09/30 05:18:49;;;;;;;27.10;20.58;;;18.50;64.60;;;;;;4973379;28;20030;-66
2021/09/30 05:21:15;;;;;;;27.92;20.83;;;18.60;65.00;;;;;;4973396;28;20469;-66
2021/09/30 05:23:40;;;;;;;31.98;20.38;;;18.50;64.60;;;;;;4973351;28;20034;-66
2021/09/30 05:26:06;;;;;;;33.08;22.60;;;18.60;65.10;;;;;;4973850;28;20034;-66
2021/09/30 05:28:32;;;;;;;25.83;20.17;;;18.60;65.00;;;;;;4972951;28;20161;-66
2021/09/30 05:30:58;;;;;;;27.50;20.35;;;18.50;64.90;;;;;;4974125;28;20047;-66
2021/09/30 05:33:24;;;;;;;26.65;19.23;;;18.50;65.00;;;;;;4972958;28;20019;-66
2021/09/30 05:35:50;;;;;;;29.52;20.10;;;18.50;65.40;;;;;;4973868;28;20445;-66
2021/09/30 05:38:16;;;;;;;28.38;20.77;;;18.60;65.40;;;;;;4973288;28;20031;-66
2021/09/30 05:40:42;;;;;;;26.17;19.95;;;18.50;65.80;;;;;;4973652;28;20117;-66
2021/09/30 05:43:12;;;;;;;29.70;20.45;;;18.50;65.50;;;;;;4973821;28;20018;-66
2021/09/30 05:45:42;;;;;;;28.02;20.05;;;18.50;65.50;;;;;;4973158;28;20039;-66
2021/09/30 05:48:08;;;;;;;25.55;18.95;;;18.50;66.20;;;;;;4973908;28;20085;-66
2021/09/30 05:50:35;;;;;;;26.60;18.40;;;18.50;66.10;;;;;;4955175;28;20046;-66
2021/09/30 05:53:01;;;;;;;26.88;20.40;;;18.60;66.30;;;;;;4972976;28;20023;-66
2021/09/30 05:55:26;;;;;;;26.50;18.90;;;18.70;66.80;;;;;;4972807;28;20397;-66
2021/09/30 05:57:52;;;;;;;26.90;19.80;;;18.70;67.40;;;;;;4972346;28;20031;-65
2021/09/30 06:00:29;;;;;;;23.30;18.63;;;18.80;67.20;;;;;;4967922;28;20032;-65
2021/09/30 06:14:13;;;;;;;27.08;18.67;;;18.70;67.20;;;;;;4973403;28;20170;-65
2021/09/30 06:16:45;;;;;;;27.50;17.77;;;18.70;66.90;;;;;;4977203;28;20054;-65
2021/09/30 06:19:19;;;;;;;26.88;17.55;;;18.70;66.60;;;;;;4959567;28;20132;-66
2021/09/30 06:21:46;;;;;;;25.48;17.73;;;18.90;66.40;;;;;;4976318;28;20023;-66
2021/09/30 06:24:12;;;;;;;26.83;17.65;;;19.00;65.40;;;;;;4976745;28;20046;-66
2021/09/30 06:26:37;;;;;;;23.25;16.23;;;19.10;65.10;;;;;;4976636;28;20026;-66
2021/09/30 06:29:03;;;;;;;23.83;17.15;;;19.10;64.70;;;;;;4975321;28;20477;-67
2021/09/30 06:31:29;;;;;;;23.60;17.15;;;19.10;64.50;;;;;;4977203;28;20061;-65
2021/09/30 06:33:54;;;;;;;23.73;17.23;;;19.20;64.40;;;;;;4976116;28;20027;-65
2021/09/30 06:36:20;;;;;;;22.85;16.42;;;19.20;64.20;;;;;;4977097;28;20449;-66
2021/09/30 06:38:45;;;;;;;25.75;17.70;;;19.30;63.80;;;;;;4976035;28;20023;-65
2021/09/30 06:41:11;;;;;;;25.75;16.60;;;19.30;63.80;;;;;;4976551;28;20027;-66
2021/09/30 06:43:36;;;;;;;18.67;15.45;;;19.30;63.60;;;;;;4975828;28;20015;-66
2021/09/30 06:46:02;;;;;;;21.65;14.75;;;19.40;62.90;;;;;;4976630;28;20030;-66
2021/09/30 06:48:28;;;;;;;19.73;13.93;;;19.40;62.30;;;;;;4976503;28;20392;-66
2021/09/30 06:50:54;;;;;;;20.73;14.45;;;19.50;61.60;;;;;;4974072;28;20039;-66
2021/09/30 06:53:19;;;;;;;19.58;13.68;;;19.60;61.70;;;;;;4976038;28;20035;-66
2021/09/30 06:55:45;;;;;;;22.35;14.38;;;19.50;61.70;;;;;;4974831;28;20130;-66
2021/09/30 06:58:11;;;;;;;18.30;14.18;;;19.60;61.60;;;;;;4976105;28;20034;-66
2021/09/30 07:00:41;;;;;;;17.30;13.68;;;19.60;61.10;;;;;;4974831;28;20026;-66
2021/09/30 07:03:08;;;;;;;17.75;13.15;;;19.70;61.40;;;;;;4975930;28;20461;-66
2021/09/30 07:05:34;;;;;;;23.38;14.85;;;19.70;60.90;;;;;;4975106;28;20042;-66
2021/09/30 07:08:01;;;;;;;19.05;14.55;;;19.70;61.30;;;;;;4976636;28;20473;-66
2021/09/30 07:10:27;;;;;;;21.02;14.27;;;19.70;61.00;;;;;;4957822;28;20520;-66
2021/09/30 07:12:53;;;;;;;18.20;14.38;;;19.70;60.70;;;;;;4976322;28;20037;-66
2021/09/30 07:15:18;;;;;;;17.90;13.82;;;19.80;60.30;;;;;;4973678;28;20027;-66
2021/09/30 07:17:44;;;;;;;21.05;14.18;;;19.80;60.40;;;;;;4976143;28;20106;-66
2021/09/30 07:20:11;;;;;;;15.88;12.18;;;19.80;59.90;;;;;;4952307;29;20346;-66
2021/09/30 07:22:36;;;;;;;20.27;12.20;;;19.90;59.80;;;;;;4953786;28;20514;-66
2021/09/30 07:25:03;;;;;;;16.25;11.82;;;20.00;59.00;;;;;;4966096;28;20046;-66
2021/09/30 07:27:29;;;;;;;15.20;10.95;;;20.10;58.90;;;;;;4976236;28;20035;-67
2021/09/30 07:29:54;;;;;;;13.98;11.90;;;20.20;58.60;;;;;;4975042;28;20031;-66
2021/09/30 07:32:20;;;;;;;16.58;11.68;;;20.20;58.30;;;;;;4976061;28;20422;-66
2021/09/30 07:34:46;;;;;;;14.52;12.05;;;20.20;58.40;;;;;;4974943;28;20035;-66
2021/09/30 07:37:12;;;;;;;17.38;12.00;;;20.20;58.70;;;;;;4976003;28;20436;-66
2021/09/30 07:39:38;;;;;;;14.20;10.60;;;20.00;58.00;;;;;;4974886;28;20031;-66
2021/09/30 07:42:04;;;;;;;15.30;10.30;;;20.00;58.70;;;;;;4976282;28;20031;-66
2021/09/30 07:44:33;;;;;;;14.98;10.52;;;19.90;58.90;;;;;;4974349;28;20042;-66
2021/09/30 07:46:59;;;;;;;18.10;11.48;;;19.90;59.10;;;;;;4974253;28;20118;-66
2021/09/30 07:49:25;;;;;;;15.45;10.10;;;19.80;59.20;;;;;;4968936;28;20055;-66
2021/09/30 07:51:50;;;;;;;13.85;9.70;;;19.80;60.20;;;;;;4956183;29;20032;-66
2021/09/30 07:54:17;;;;;;;13.02;9.70;;;19.80;59.30;;;;;;4954990;29;20027;-66
2021/09/30 07:56:42;;;;;;;14.60;10.52;;;19.70;59.40;;;;;;4955265;28;20063;-66
2021/09/30 07:59:08;;;;;;;15.43;9.40;;;19.70;59.10;;;;;;4955108;29;21686;-66
2021/09/30 08:01:33;;;;;;;15.20;8.65;;;19.70;59.50;;;;;;4953645;29;20186;-66
2021/09/30 08:04:00;;;;;;;18.17;9.35;;;19.80;59.20;;;;;;4954905;29;20035;-66
2021/09/30 08:06:26;;;;;;;10.63;9.20;;;19.90;59.10;;;;;;4956800;28;20106;-66
2021/09/30 08:08:52;;;;;;;10.35;8.80;;;20.00;58.90;;;;;;4955779;28;20019;-66
2021/09/30 08:11:18;;;;;;;11.98;9.02;;;19.90;58.90;;;;;;4955489;29;20098;-65
2021/09/30 08:13:44;;;;;;;14.10;9.77;;;19.90;58.20;;;;;;4956221;29;20439;-67
2021/09/30 08:16:09;;;;;;;11.98;8.52;;;19.80;58.30;;;;;;4953649;29;20063;-66
2021/09/30 08:18:35;;;;;;;14.27;7.82;;;19.90;58.80;;;;;;4961896;28;20041;-66
2021/09/30 08:21:01;;;;;;;10.00;7.68;;;19.90;58.60;;;;;;4950060;29;20104;-66
2021/09/30 08:23:26;;;;;;;10.07;7.30;;;19.90;58.20;;;;;;4952283;29;20082;-66
2021/09/30 08:25:52;;;;;;;8.95;7.28;;;20.00;58.20;;;;;;4953862;29;20050;-66
2021/09/30 08:28:20;;;;;;;13.35;7.45;;;20.10;57.80;;;;;;4954547;29;20023;-66
2021/09/30 08:30:47;;;;;;;11.13;8.18;;;20.10;57.30;;;;;;4954482;28;20038;-65
2021/09/30 08:33:12;;;;;;;15.23;8.45;;;20.10;57.60;;;;;;4955022;28;20057;-66
2021/09/30 08:35:39;;;;;;;14.15;7.82;;;20.20;57.80;;;;;;4954330;29;20063;-66
2021/09/30 08:38:05;;;;;;;9.55;7.25;;;20.30;57.30;;;;;;4954059;29;20078;-66
2021/09/30 08:40:32;;;;;;;8.98;6.97;;;20.30;56.70;;;;;;4954303;29;20038;-66
2021/09/30 08:42:57;;;;;;;10.15;7.15;;;20.40;56.60;;;;;;4955713;28;20098;-66
2021/09/30 08:45:24;;;;;;;9.38;6.60;;;20.40;56.50;;;;;;4954221;29;20560;-66
2021/09/30 08:48:02;;;;;;;11.52;6.88;;;20.50;56.20;;;;;;4955473;29;20023;-66
2021/09/30 08:50:30;;;;;;;7.72;6.10;;;20.40;55.30;;;;;;4965610;28;20055;-66
2021/09/30 08:52:56;;;;;;;7.38;6.28;;;20.40;55.90;;;;;;4974692;28;20528;-66
2021/09/30 08:55:21;;;;;;;10.45;6.90;;;20.50;55.90;;;;;;4955932;28;20489;-66
2021/09/30 08:57:48;;;;;;;8.35;6.30;;;20.60;55.60;;;;;;4973332;28;20033;-66
2021/09/30 09:00:16;;;;;;;10.93;6.85;;;20.80;55.30;;;;;;4972389;28;20030;-66
2021/09/30 09:02:51;;;;;;;11.73;7.10;;;20.90;54.90;;;;;;4956948;28;20031;-65
2021/09/30 09:05:17;;;;;;;;;;;20.90;54.50;;;;;;4956920;28;20043;-66
2021/09/30 09:07:51;;;;;;;8.05;5.90;;;20.90;52.80;;;;;;4974243;28;19920;-66
2021/09/30 09:10:20;;;;;;;10.38;6.45;;;21.20;53.30;;;;;;4973217;28;20048;-67
2021/09/30 09:12:45;;;;;;;8.45;5.38;;;21.30;52.80;;;;;;4974919;28;20327;-66
2021/09/30 09:15:11;;;;;;;7.10;6.15;;;21.40;52.00;;;;;;4972993;28;20082;-66
2021/09/30 09:17:40;;;;;;;8.27;6.28;;;21.50;51.80;;;;;;4973105;28;20026;-67
2021/09/30 09:20:06;;;;;;;8.50;5.82;;;21.50;51.90;;;;;;4973082;28;20109;-66
2021/09/30 09:22:35;;;;;;;7.28;6.18;;;21.60;50.90;;;;;;4974325;28;20023;-66
2021/09/30 09:25:03;;;;;;;8.75;6.68;;;21.60;50.40;;;;;;4972903;28;20053;-66
2021/09/30 09:27:45;;;;;;;9.65;8.25;;;21.50;50.50;;;;;;4974059;28;20030;-66
2021/09/30 09:30:25;;;;;;;8.32;7.07;;;21.70;49.20;;;;;;4972953;28;20034;-66
2021/09/30 09:33:18;;;;;;;9.52;6.97;;;21.70;49.40;;;;;;4974459;28;20027;-66
2021/09/30 09:36:04;;;;;;;9.10;7.00;;;21.70;50.50;;;;;;4972986;28;20065;-66
2021/09/30 09:38:32;;;;;;;8.40;6.68;;;21.70;50.70;;;;;;4974174;28;20031;-66
2021/09/30 09:41:04;;;;;;;13.07;7.22;;;21.80;50.70;;;;;;4972248;28;20030;-66
2021/09/30 09:43:40;;;;;;;7.57;6.10;;;21.70;50.10;;;;;;4973750;28;20038;-66
2021/09/30 09:46:07;;;;;;;12.77;7.00;;;21.70;49.70;;;;;;4975503;28;20632;-66
2021/09/30 09:48:33;;;;;;;10.02;5.90;;;21.70;49.80;;;;;;4977831;28;20481;-66
2021/09/30 09:51:02;;;;;;;10.45;6.80;;;21.80;50.00;;;;;;4976640;28;20065;-66
2021/09/30 09:53:31;;;;;;;7.32;5.63;;;21.80;49.10;;;;;;4978489;28;20042;-66
2021/09/30 09:56:18;;;;;;;9.75;6.93;;;21.90;49.60;;;;;;4976743;28;20113;-67
2021/09/30 09:58:48;;;;;;;10.43;6.40;;;22.20;48.70;;;;;;4977890;28;20019;-66
2021/09/30 10:01:15;;;;;;;7.15;4.97;;;22.30;48.80;;;;;;4976881;28;20039;-66
2021/09/30 10:03:59;;;;;;;6.22;5.63;;;22.40;48.10;;;;;;4960331;28;20382;-67
2021/09/30 10:06:26;;;;;;;7.75;6.95;;;22.50;47.00;;;;;;4976607;28;20499;-67
2021/09/30 10:08:52;;;;;;;7.50;5.90;;;22.70;47.60;;;;;;4977597;28;20033;-66
2021/09/30 10:11:19;;;;;;;7.22;4.97;;;22.80;47.30;;;;;;4959065;28;20034;-66
2021/09/30 10:13:45;;;;;;;6.22;4.85;;;22.80;46.60;;;;;;4977512;28;20065;-66
2021/09/30 10:16:15;;;;;;;6.35;4.80;;;22.90;45.50;;;;;;4976365;28;20058;-66
2021/09/30 10:18:41;;;;;;;5.63;3.85;;;22.90;45.00;;;;;;4976555;28;20058;-67
2021/09/30 10:21:07;;;;;;;6.57;4.15;;;23.00;45.20;;;;;;4976233;28;20516;-66
2021/09/30 10:23:36;;;;;;;5.07;3.92;;;23.00;44.20;;;;;;4959731;28;20408;-66
2021/09/30 10:26:15;;;;;;;4.35;3.85;;;23.10;42.80;;;;;;4975991;28;20244;-66
2021/09/30 10:28:44;;;;;;;5.03;3.80;;;23.00;43.60;;;;;;4974575;28;20038;-66
2021/09/30 10:31:24;;;;;;;4.80;4.10;;;22.80;43.50;;;;;;4976353;28;20091;-67
2021/09/30 10:33:53;;;;;;;5.75;3.75;;;22.80;43.10;;;;;;4977593;28;20026;-67
2021/09/30 10:36:28;;;;;;;3.50;3.20;;;22.70;44.30;;;;;;4976243;28;20042;-67
2021/09/30 10:39:22;;;;;;;3.92;3.10;;;22.90;43.10;;;;;;4976160;28;20089;-67
2021/09/30 10:41:49;;;;;;;3.90;3.03;;;23.00;42.60;;;;;;4975846;28;20436;-67
2021/09/30 10:44:18;;;;;;;6.85;3.72;;;22.90;43.10;;;;;;4975854;28;20034;-73
2021/09/30 10:46:51;;;;;;;5.47;3.67;;;22.80;43.10;;;;;;4974964;28;20042;-69
2021/09/30 10:49:52;;;;;;;4.72;4.20;;;22.80;42.70;;;;;;4967430;28;20062;-64
2021/09/30 10:52:21;;;;;;;6.25;5.25;;;22.90;43.20;;;;;;4974235;28;20042;-63
2021/09/30 10:54:54;;;;;;;6.15;5.05;;;22.80;44.00;;;;;;4976851;28;20041;-64
2021/09/30 10:57:38;;;;;;;6.03;4.57;;;22.80;43.70;;;;;;4974572;28;20035;-66
2021/09/30 11:00:09;;;;;;;5.43;4.80;;;22.80;43.60;;;;;;4975965;28;20127;-66
2021/09/30 11:03:00;;;;;;;6.03;5.43;;;22.70;44.10;;;;;;4971230;28;20125;-63
2021/09/30 11:05:27;;;;;;;9.05;5.95;;;22.70;43.90;;;;;;4957626;28;20035;-64
2021/09/30 11:08:24;;;;;;;9.02;5.63;;;22.70;45.00;;;;;;4958249;28;20477;-64
2021/09/30 11:11:11;;;;;;;7.88;5.22;;;22.90;45.10;;;;;;4975211;28;20027;-62
2021/09/30 11:13:55;;;;;;;6.07;5.30;;;22.90;44.60;;;;;;4976353;28;20039;-64
2021/09/30 11:16:33;;;;;;;7.60;5.53;;;22.90;43.60;;;;;;4975436;28;20503;-62
2021/09/30 11:19:00;;;;;;;10.55;7.90;;;23.00;44.20;;;;;;4976066;28;20027;-62
2021/09/30 11:21:31;;;;;;;9.60;6.30;;;23.10;44.10;;;;;;4974144;28;20101;-64
2021/09/30 11:24:03;;;;;;;8.85;5.25;;;23.20;44.30;;;;;;4976541;28;20023;-65
2021/09/30 11:26:34;;;;;;;6.32;5.28;;;23.20;43.30;;;;;;4974533;28;20043;-64
2021/09/30 11:29:25;;;;;;;6.07;4.93;;;23.40;42.80;;;;;;4975022;28;20030;-63
2021/09/30 11:31:53;;;;;;;7.82;4.82;;;23.50;42.00;;;;;;4975376;28;20489;-62
2021/09/30 11:34:31;;;;;;;7.55;6.45;;;23.50;42.10;;;;;;4974414;28;20069;-62
2021/09/30 11:37:12;;;;;;;10.27;5.25;;;23.60;40.80;;;;;;4973527;28;20130;-62
2021/09/30 11:39:38;;;;;;;10.50;7.22;;;23.70;45.40;;;;;;4973734;28;20027;-62
2021/09/30 11:42:03;;;;;;;5.90;5.20;;;23.50;41.40;;;;;;4974264;28;20117;-62
2021/09/30 11:44:29;;;;;;;7.50;6.75;;;23.70;41.50;;;;;;4975823;28;20118;-62
2021/09/30 11:46:57;;;;;;;8.75;7.70;;;23.80;41.00;;;;;;4974665;28;20035;-63
2021/09/30 11:49:23;;;;;;;6.75;5.35;;;24.10;40.60;;;;;;4957213;28;20046;-63
2021/09/30 11:51:52;;;;;;;7.85;5.13;;;24.10;40.10;;;;;;4974635;28;20073;-63
2021/09/30 11:54:33;;;;;;;6.85;5.28;;;24.10;39.40;;;;;;4975427;28;20027;-62
2021/09/30 11:56:59;;;;;;;6.90;6.20;;;24.10;39.80;;;;;;4974539;28;20125;-63
2021/09/30 11:59:26;;;;;;;9.23;5.28;;;24.20;39.90;;;;;;4975325;28;20150;-63
2021/09/30 12:01:57;;;;;;;8.50;5.75;;;24.20;39.20;;;;;;4974483;28;20031;-63
2021/09/30 12:04:47;;;;;;;11.40;5.53;;;24.40;38.40;;;;;;4975187;28;20058;-63
2021/09/30 12:07:22;;;;;;;6.28;4.65;;;24.50;38.30;;;;;;4974184;28;20041;-63
2021/09/30 12:09:50;;;;;;;7.88;5.13;;;24.60;37.40;;;;;;4975325;28;20029;-63
2021/09/30 12:12:16;;;;;;;5.75;4.88;;;24.70;38.00;;;;;;4971396;28;20031;-63
2021/09/30 12:14:52;;;;;;;6.38;5.00;;;25.00;37.70;;;;;;4974736;28;20389;-63
2021/09/30 12:17:19;;;;;;;12.07;5.80;;;;;;;;;;4973251;28;20054;-63
2021/09/30 12:19:49;;;;;;;5.82;5.22;;;26.10;70.50;;;;;;4973878;28;20049;-63
2021/09/30 12:22:16;;;;;;;7.40;6.30;;;25.70;42.30;;;;;;4973747;28;20031;-62
2021/09/30 12:24:51;;;;;;;8.13;5.78;;;31.30;47.40;;;;;;4968097;28;20066;-63
2021/09/30 12:27:18;;;;;;;9.10;6.05;;;;;;;;;;4965275;28;20029;-63
2021/09/30 12:29:46;;;;;;;6.88;5.63;;;33.10;46.00;;;;;;4973702;28;20027;-62
2021/09/30 12:32:19;;;;;;;8.65;5.18;;;33.70;22.40;;;;;;4972803;28;20374;-63
2021/09/30 12:35:03;;;;;;;6.47;5.13;;;33.20;21.40;;;;;;4974571;28;20062;-62
2021/09/30 12:37:38;;;;;;;6.97;5.15;;;34.30;20.40;;;;;;4973932;28;20035;-63
2021/09/30 12:40:19;;;;;;;6.45;4.88;;;34.40;20.50;;;;;;4974536;28;20029;-62
2021/09/30 12:43:03;;;;;;;4.10;3.70;;;35.50;18.60;;;;;;4973643;28;20031;-63
2021/09/30 12:45:33;;;;;;;6.03;5.35;;;37.10;16.80;;;;;;4973546;28;20050;-63
2021/09/30 12:48:05;;;;;;;6.70;4.95;;;36.80;16.20;;;;;;4973484;28;20077;-63
2021/09/30 12:50:39;;;;;;;6.97;5.20;;;38.60;15.00;;;;;;4973404;28;20077;-63
2021/09/30 12:53:05;;;;;;;7.53;6.70;;;38.30;14.10;;;;;;4973456;28;20039;-63
2021/09/30 12:55:32;;;;;;;6.15;5.55;;;38.70;14.00;;;;;;4974796;28;20031;-63
2021/09/30 12:57:58;;;;;;;11.32;9.30;;;38.50;13.80;;;;;;4973552;28;20476;-63
2021/09/30 13:00:32;;;;;;;9.55;6.00;;;37.90;13.80;;;;;;4972353;28;20114;-63
2021/09/30 13:03:11;;;;;;;6.15;5.55;;;38.20;13.60;;;;;;4973056;28;20110;-63
2021/09/30 13:05:46;;;;;;;7.18;5.07;;;39.00;12.50;;;;;;4972858;28;20117;-63
2021/09/30 13:08:12;;;;;;;6.68;5.03;;;37.10;12.20;;;;;;4973367;28;20515;-63
2021/09/30 13:10:38;;;;;;;7.47;5.55;;;37.10;13.30;;;;;;4974300;28;20113;-63
2021/09/30 13:13:14;;;;;;;7.60;5.93;;;36.50;13.40;;;;;;4973519;28;20082;-63
2021/09/30 13:15:43;;;;;;;6.90;6.20;;;37.10;13.50;;;;;;4974257;28;20045;-63
2021/09/30 13:18:12;;;;;;;7.00;5.57;;;35.10;13.90;;;;;;4973284;28;20051;-63
2021/09/30 13:20:39;;;;;;;6.93;5.88;;;33.20;16.60;;;;;;4951864;28;20095;-63
2021/09/30 13:23:04;;;;;;;6.68;5.72;;;32.20;18.10;;;;;;4971293;28;20027;-63
2021/09/30 13:25:31;;;;;;;6.43;5.10;;;31.30;19.40;;;;;;4974340;28;20473;-63
2021/09/30 13:27:56;;;;;;;6.03;5.43;;;30.30;20.60;;;;;;4973178;28;20044;-63
2021/09/30 13:30:31;;;;;;;7.70;5.63;;;29.80;21.60;;;;;;4974422;28;20084;-64
2021/09/30 13:32:59;;;;;;;9.00;6.07;;;29.00;22.70;;;;;;4973332;28;20030;-62
2021/09/30 13:35:31;;;;;;;8.93;6.63;;;28.50;23.70;;;;;;4973952;28;20027;-63
2021/09/30 13:37:57;;;;;;;6.57;5.72;;;27.90;24.00;;;;;;4973176;28;20092;-63
2021/09/30 13:40:24;;;;;;;8.35;6.65;;;27.60;24.90;;;;;;4973884;28;20393;-63
2021/09/30 13:42:50;;;;;;;7.07;6.15;;;27.20;25.20;;;;;;4955647;28;20109;-62
2021/09/30 13:45:18;;;;;;;7.50;6.70;;;26.80;25.70;;;;;;4973834;28;20050;-62
2021/09/30 13:47:43;;;;;;;5.88;5.18;;;27.10;25.70;;;;;;4973085;28;20031;-62
2021/09/30 13:50:14;;;;;;;6.72;5.63;;;26.80;26.60;;;;;;4971811;28;20051;-63
2021/09/30 13:52:41;;;;;;;7.07;6.13;;;26.80;26.10;;;;;;4955614;28;20031;-63
2021/09/30 13:55:07;;;;;;;6.93;6.30;;;26.60;26.80;;;;;;4973871;28;20019;-63
2021/09/30 13:57:34;;;;;;;7.88;6.50;;;26.50;26.80;;;;;;4972912;28;20066;-63
2021/09/30 14:00:01;;;;;;;6.82;5.93;;;26.30;27.20;;;;;;4974040;28;20031;-62
2021/09/30 14:02:27;;;;;;;8.80;6.85;;;26.20;27.70;;;;;;4972969;28;20031;-62
2021/09/30 14:04:53;;;;;;;8.43;7.20;;;26.10;27.70;;;;;;4973539;28;20480;-63
2021/09/30 14:07:18;;;;;;;10.10;7.10;;;26.10;27.50;;;;;;4973079;28;20150;-63
2021/09/30 14:09:44;;;;;;;7.75;6.70;;;26.10;27.90;;;;;;4973717;28;20022;-63
2021/09/30 14:12:10;;;;;;;7.88;5.72;;;25.90;27.90;;;;;;4966663;28;20042;-63
2021/09/30 14:14:36;;;;;;;11.50;7.03;;;26.10;28.00;;;;;;4973660;28;20027;-63
2021/09/30 14:17:02;;;;;;;7.10;6.32;;;26.10;27.80;;;;;;4972112;28;20031;-63
2021/09/30 14:19:28;;;;;;;9.48;7.57;;;26.10;27.80;;;;;;4972001;28;20038;-63
2021/09/30 14:21:56;;;;;;;7.60;6.60;;;26.00;27.80;;;;;;4972669;28;20037;-63
2021/09/30 14:24:22;;;;;;;7.88;7.07;;;26.20;27.90;;;;;;4973501;28;20023;-63
2021/09/30 14:26:48;;;;;;;9.38;6.40;;;26.40;27.40;;;;;;4971741;28;20395;-63
2021/09/30 14:29:14;;;;;;;8.82;7.03;;;26.30;27.40;;;;;;4972746;28;20042;-63
2021/09/30 14:31:40;;;;;;;11.27;7.32;;;26.50;26.90;;;;;;4964446;28;20050;-63
2021/09/30 14:34:06;;;;;;;6.57;5.70;;;26.80;26.40;;;;;;4977293;28;20030;-63
2021/09/30 14:36:35;;;;;;;6.93;6.20;;;27.50;25.80;;;;;;4976161;28;20110;-62
2021/09/30 14:39:03;;;;;;;8.43;6.78;;;27.80;25.60;;;;;;4977163;28;20051;-63
2021/09/30 14:41:28;;;;;;;9.88;8.15;;;27.20;25.80;;;;;;4976111;28;20027;-64
2021/09/30 14:43:54;;;;;;;9.40;7.80;;;26.50;27.20;;;;;;4976995;28;20484;-63
2021/09/30 14:46:20;;;;;;;10.65;7.70;;;26.60;26.80;;;;;;4976177;28;20612;-64
2021/09/30 14:48:46;;;;;;;10.90;7.68;;;26.60;26.80;;;;;;4974934;28;20442;-63
2021/09/30 14:51:14;;;;;;;7.90;6.40;;;26.80;26.80;;;;;;4975874;28;20082;-64
2021/09/30 14:53:39;;;;;;;9.93;7.25;;;26.70;27.20;;;;;;4976086;28;20023;-63
2021/09/30 14:56:06;;;;;;;9.50;7.97;;;26.70;27.10;;;;;;4976986;28;20534;-63
2021/09/30 14:58:32;;;;;;;10.40;8.52;;;26.70;26.90;;;;;;4975649;28;20366;-63
2021/09/30 15:00:58;;;;;;;12.75;8.50;;;26.50;27.10;;;;;;4973669;28;20051;-64
2021/09/30 15:03:24;;;;;;;12.77;8.20;;;26.60;27.30;;;;;;4974147;28;20640;-63
2021/09/30 15:05:50;;;;;;;9.98;8.27;;;26.20;27.20;;;;;;4975813;28;20042;-63
2021/09/30 15:08:18;;;;;;;10.60;9.05;;;26.00;27.90;;;;;;4975651;28;20496;-63
2021/09/30 15:10:44;;;;;;;9.68;8.10;;;25.90;28.20;;;;;;4959120;28;20037;-63
2021/09/30 15:13:09;;;;;;;9.77;8.23;;;25.60;28.60;;;;;;4975488;28;20027;-63
2021/09/30 15:15:35;;;;;;;10.13;8.52;;;25.40;28.90;;;;;;4972954;28;20122;-62
2021/09/30 15:18:10;;;;;;;12.93;8.98;;;25.40;29.00;;;;;;4974169;28;20023;-63
2021/09/30 15:23:09;;;;;;;9.43;8.27;;;25.20;30.00;;;;;;4975343;28;20038;-62
2021/09/30 15:25:38;;;;;;;12.98;8.07;;;25.10;29.90;;;;;;4976212;28;20031;-62
2021/09/30 15:28:06;;;;;;;10.05;8.95;;;25.00;29.70;;;;;;4974664;28;20134;-63
2021/09/30 15:30:34;;;;;;;11.77;10.27;;;24.90;30.00;;;;;;4976159;28;20023;-63
2021/09/30 15:33:01;;;;;;;11.85;8.35;;;24.80;29.70;;;;;;4974480;28;20038;-63
2021/09/30 15:35:27;;;;;;;11.48;8.45;;;24.70;30.40;;;;;;4975352;28;20038;-63
2021/09/30 15:37:52;;;;;;;10.68;8.35;;;24.60;30.50;;;;;;4975153;28;20045;-63
2021/09/30 15:40:18;;;;;;;10.73;8.60;;;24.70;30.50;;;;;;4974006;28;20062;-62
2021/09/30 15:42:46;;;;;;;11.75;7.90;;;24.80;30.70;;;;;;4974001;28;20022;-62
2021/09/30 15:45:13;;;;;;;12.70;8.73;;;24.50;30.70;;;;;;4974866;28;20042;-63